Time;durP1;ratioP1;P1;durP2;ratioP2;P2;SDS_P1;SDS_P2;PMS_P1;PMS_P2;Temp;Humidity;BMP_temperature;BMP_pressure;BME280_temperature;BME280_humidity;BME280_pressure;Samples;Min_cycle;Max_cycle;Signal;HPM_P1;HPM_P2
2023/12/11 00:00:28;;;;;;;2.80;2.50;;;;;;;0.27;100.00;100621.33;104850;1257;60559;-53
2023/12/11 00:02:55;;;;;;;2.30;1.80;;;;;;;0.26;100.00;100619.39;104955;1256;60540;-55
2023/12/11 00:05:23;;;;;;;3.20;2.20;;;;;;;0.24;100.00;100617.98;104631;1254;72697;-54
2023/12/11 00:07:51;;;;;;;1.80;1.60;;;;;;;0.24;100.00;100618.69;104731;1257;67597;-55
2023/12/11 00:10:18;;;;;;;1.40;1.20;;;;;;;0.24;100.00;100610.73;104707;1257;71525;-52
2023/12/11 00:12:46;;;;;;;1.60;1.00;;;;;;;0.23;100.00;100613.38;104907;1258;60467;-54
2023/12/11 00:15:13;;;;;;;1.50;1.00;;;;;;;0.25;100.00;100608.80;104796;1257;60459;-54
2023/12/11 00:17:41;;;;;;;1.70;1.40;;;;;;;0.26;100.00;100605.80;104789;1254;71711;-54
2023/12/11 00:20:09;;;;;;;2.00;1.10;;;;;;;0.28;100.00;100601.57;105229;1259;64683;-54
2023/12/11 00:22:37;;;;;;;1.70;1.50;;;;;;;0.31;100.00;100598.96;107664;1256;71462;-55
2023/12/11 00:25:05;;;;;;;2.60;1.50;;;;;;;0.36;100.00;100597.92;104991;1258;60393;-55
2023/12/11 00:27:33;;;;;;;1.60;1.20;;;;;;;0.37;100.00;100596.86;108960;1254;60121;-53
2023/12/11 00:30:00;;;;;;;2.00;1.70;;;;;;;0.38;100.00;100588.23;108940;1253;72855;-53
2023/12/11 00:32:28;;;;;;;1.90;1.20;;;;;;;0.36;100.00;100587.67;109021;1253;67656;-53
2023/12/11 00:34:55;;;;;;;2.20;1.30;;;;;;;0.34;100.00;100584.31;109016;1257;71458;-53
2023/12/11 00:37:23;;;;;;;1.40;1.10;;;;;;;0.33;100.00;100585.38;108867;1254;59627;-52
2023/12/11 00:39:50;;;;;;;1.60;1.20;;;;;;;0.33;100.00;100594.92;104773;1254;60440;-55
2023/12/11 00:42:20;;;;;;;1.40;1.10;;;;;;;0.34;100.00;100592.61;104758;1254;76060;-54
2023/12/11 00:44:48;;;;;;;1.40;1.00;;;;;;;0.36;100.00;100586.79;104887;1259;65530;-55
2023/12/11 00:47:15;;;;;;;3.10;1.40;;;;;;;0.38;100.00;100584.52;104669;1256;74353;-54
2023/12/11 00:49:43;;;;;;;1.30;1.10;;;;;;;0.40;100.00;100587.00;104820;1257;60466;-54
2023/12/11 00:52:10;;;;;;;2.80;1.10;;;;;;;0.43;100.00;100587.72;105981;1257;60534;-54
2023/12/11 00:54:38;;;;;;;1.90;1.30;;;;;;;0.44;100.00;100583.48;105455;1254;72570;-54
2023/12/11 00:57:05;;;;;;;3.10;2.30;;;;;;;0.42;100.00;100583.84;104900;1259;67597;-54
2023/12/11 00:59:33;;;;;;;1.60;1.50;;;;;;;0.40;100.00;100576.95;104749;1260;72760;-54
2023/12/11 01:02:00;;;;;;;2.80;1.80;;;;;;;0.38;100.00;100578.52;104910;1254;60526;-55
2023/12/11 01:04:28;;;;;;;1.70;1.20;;;;;;;0.35;100.00;100572.31;104575;1259;62105;-55
2023/12/11 01:06:56;;;;;;;1.30;1.10;;;;;;;0.33;100.00;100568.79;104811;1254;73899;-55
2023/12/11 01:09:24;;;;;;;1.90;1.20;;;;;;;0.33;100.00;100567.02;105627;1258;67283;-55
2023/12/11 01:11:51;;;;;;;1.50;1.20;;;;;;;0.34;100.00;100567.20;104864;1256;71217;-55
2023/12/11 01:14:19;;;;;;;1.50;1.10;;;;;;;0.36;100.00;100564.55;105777;1254;63247;-54
2023/12/11 01:16:46;;;;;;;1.20;1.00;;;;;;;0.39;100.00;100565.98;104708;1259;60530;-55
2023/12/11 01:22:00;;;;;;;1.30;1.20;;;;;;;0.39;100.00;100653.20;102170;1291;600670;-55
2023/12/11 01:24:28;;;;;;;1.80;1.50;;;;;;;0.41;100.00;100663.65;103999;1269;61564;-53
2023/12/11 01:26:55;;;;;;;2.40;1.30;;;;;;;0.42;100.00;100652.17;104435;1271;59276;-53
2023/12/11 01:29:23;;;;;;;1.60;1.20;;;;;;;0.42;100.00;100645.45;103839;1269;70072;-53
2023/12/11 01:31:50;;;;;;;1.10;1.00;;;;;;;0.41;100.00;100642.99;103877;1268;67258;-53
2023/12/11 01:34:18;;;;;;;1.70;1.10;;;;;;;0.40;100.00;100635.74;103909;1269;72742;-54
2023/12/11 01:36:45;;;;;;;1.20;0.90;;;;;;;0.41;100.00;100626.39;101786;1263;3594868;-51
2023/12/11 01:39:13;;;;;;;1.10;0.90;;;;;;;0.41;100.00;100622.16;104759;1263;59343;-53
2023/12/11 01:41:41;;;;;;;2.00;1.10;;;;;;;0.43;100.00;100619.49;104343;1265;59623;-54
2023/12/11 01:44:08;;;;;;;2.00;1.40;;;;;;;0.42;100.00;100614.04;104541;1263;67508;-53
2023/12/11 01:46:36;;;;;;;1.40;1.10;;;;;;;0.43;100.00;100615.63;104480;1263;71815;-52
2023/12/11 01:49:03;;;;;;;2.30;1.60;;;;;;;0.43;100.00;100607.66;104485;1259;59775;-53
2023/12/11 01:51:31;;;;;;;1.90;1.30;;;;;;;0.42;100.00;100603.44;104500;1264;59636;-53
2023/12/11 01:53:59;;;;;;;1.90;1.30;;;;;;;0.41;100.00;100603.61;104339;1263;72852;-53
2023/12/11 01:56:26;;;;;;;1.90;1.10;;;;;;;0.39;100.00;100602.00;104263;1259;67050;-54
2023/12/11 01:58:54;;;;;;;1.20;0.90;;;;;;;0.37;100.00;100596.34;104505;1265;71457;-53
2023/12/11 02:01:22;;;;;;;1.30;1.10;;;;;;;0.37;100.00;100590.68;104115;1263;59670;-52
2023/12/11 02:03:50;;;;;;;2.10;1.20;;;;;;;0.37;100.00;100593.68;105057;1264;59625;-53
2023/12/11 02:06:18;;;;;;;1.40;1.10;;;;;;;0.37;100.00;100587.15;105148;1265;73133;-53
2023/12/11 02:08:46;;;;;;;2.40;1.40;;;;;;;0.37;100.00;100583.45;104310;1260;67417;-53
2023/12/11 02:11:13;;;;;;;2.00;1.30;;;;;;;0.36;100.00;100583.61;104288;1264;73857;-54
2023/12/11 02:13:41;;;;;;;1.80;1.40;;;;;;;0.37;100.00;100581.16;104323;1262;61115;-52
2023/12/11 02:16:14;;;;;;;1.70;1.40;;;;;;;0.37;100.00;100578.50;104188;1265;60059;-53
2023/12/11 02:18:42;;;;;;;1.40;1.00;;;;;;;0.36;100.00;100581.85;108427;1260;72875;-53
2023/12/11 02:21:11;;;;;;;1.30;1.00;;;;;;;0.36;100.00;100580.26;105422;1261;66316;-53
2023/12/11 02:23:57;;;;;;;1.90;1.10;;;;;;;0.37;100.00;100577.09;104538;1256;73503;-54
2023/12/11 02:26:24;;;;;;;1.10;0.90;;;;;;;0.38;100.00;100578.52;104475;1259;59654;-53
2023/12/11 02:28:52;;;;;;;2.00;1.30;;;;;;;0.38;100.00;100567.92;104544;1256;59666;-54
2023/12/11 02:31:19;;;;;;;2.20;2.00;;;;;;;0.39;100.00;100563.52;104873;1262;73635;-53
2023/12/11 02:33:47;;;;;;;1.90;1.70;;;;;;;0.40;100.00;100564.93;105747;1258;65615;-52
2023/12/11 02:36:15;;;;;;;2.50;1.40;;;;;;;0.40;100.00;100562.63;104774;1260;74160;-53
2023/12/11 02:38:42;;;;;;;1.70;1.30;;;;;;;0.40;100.00;100564.40;104818;1260;59617;-54
2023/12/11 02:41:10;;;;;;;1.60;1.00;;;;;;;0.39;100.00;100560.52;104700;1257;60525;-53
2023/12/11 02:43:37;;;;;;;1.20;0.80;;;;;;;0.38;100.00;100564.22;104642;1261;73581;-53
2023/12/11 02:46:05;;;;;;;1.30;0.90;;;;;;;0.38;100.00;100565.09;104629;1260;66030;-53
2023/12/11 02:48:33;;;;;;;1.40;1.00;;;;;;;0.38;100.00;100572.69;104525;1261;71924;-53
2023/12/11 02:51:01;;;;;;;1.30;1.00;;;;;;;0.40;100.00;100571.11;104778;1259;59738;-53
2023/12/11 02:53:29;;;;;;;1.70;1.30;;;;;;;0.40;100.00;100573.23;105636;1256;59724;-53
2023/12/11 02:55:56;;;;;;;1.40;1.00;;;;;;;0.41;100.00;100570.23;104610;1258;72875;-52
2023/12/11 02:58:23;;;;;;;1.30;1.10;;;;;;;0.40;100.00;100567.59;104771;1260;66800;-52
2023/12/11 03:00:51;;;;;;;1.30;1.00;;;;;;;0.41;100.00;100573.59;104702;1261;71999;-51
2023/12/11 03:03:19;;;;;;;1.40;1.20;;;;;;;0.40;100.00;100576.58;104623;1257;61036;-52
2023/12/11 03:05:46;;;;;;;1.60;0.90;;;;;;;0.39;100.00;100576.58;104680;1260;61655;-51
2023/12/11 03:08:14;;;;;;;1.90;0.80;;;;;;;0.38;100.00;100580.63;104797;1259;73640;-49
2023/12/11 03:10:41;;;;;;;0.90;0.70;;;;;;;0.36;100.00;100573.91;104705;1259;66643;-52
2023/12/11 03:13:09;;;;;;;1.10;0.80;;;;;;;0.34;100.00;100575.52;104604;1257;74057;-52
2023/12/11 03:15:36;;;;;;;0.80;0.50;;;;;;;0.31;100.00;100577.77;104766;1257;59741;-51
2023/12/11 03:18:04;;;;;;;1.20;0.70;;;;;;;0.29;100.00;100581.11;104431;1261;59740;-52
2023/12/11 03:20:32;;;;;;;0.90;0.80;;;;;;;0.28;100.00;100579.14;104604;1257;72138;-51
2023/12/11 03:22:59;;;;;;;1.20;0.80;;;;;;;0.25;100.00;100582.33;104753;1258;67090;-54
2023/12/11 03:25:27;;;;;;;3.50;0.70;;;;;;;0.23;100.00;100582.84;108780;1258;72723;-52
2023/12/11 03:27:54;;;;;;;0.80;0.70;;;;;;;0.21;100.00;100582.11;108703;1256;60026;-51
2023/12/11 03:30:22;;;;;;;0.80;0.60;;;;;;;0.20;100.00;100583.16;108871;1259;59979;-53
2023/12/11 03:32:49;;;;;;;0.60;0.40;;;;;;;0.19;100.00;100583.33;108773;1255;73088;-51
2023/12/11 03:35:17;;;;;;;0.50;0.40;;;;;;;0.17;100.00;100581.02;108844;1255;67418;-52
2023/12/11 03:37:44;;;;;;;0.50;0.50;;;;;;;0.17;100.00;100574.67;108713;1259;72732;-52
2023/12/11 03:40:12;;;;;;;0.50;0.50;;;;;;;0.16;100.00;100570.45;108747;1258;59871;-53
2023/12/11 03:42:40;;;;;;;0.70;0.60;;;;;;;0.15;100.00;100567.08;108798;1257;61021;-52
2023/12/11 03:45:07;;;;;;;0.60;0.50;;;;;;;0.15;100.00;100561.60;106379;1261;71228;-52
2023/12/11 03:47:35;;;;;;;0.60;0.50;;;;;;;0.16;100.00;100559.67;104432;1261;66595;-53
2023/12/11 03:50:03;;;;;;;0.50;0.50;;;;;;;0.15;100.00;100557.73;104503;1256;72737;-52
2023/12/11 03:52:31;;;;;;;0.50;0.40;;;;;;;0.14;100.00;100551.71;106137;1256;59700;-52
2023/12/11 03:54:59;;;;;;;0.60;0.50;;;;;;;0.13;100.00;100551.88;104623;1260;59679;-52
2023/12/11 03:57:26;;;;;;;0.90;0.60;;;;;;;0.12;100.00;100546.93;105203;1258;73505;-52
2023/12/11 03:59:54;;;;;;;0.60;0.40;;;;;;;0.12;100.00;100547.11;104620;1263;67700;-53
2023/12/11 04:02:21;;;;;;;0.80;0.80;;;;;;;0.12;100.00;100544.63;104504;1256;72757;-52
2023/12/11 04:04:49;;;;;;;0.50;0.40;;;;;;;0.11;100.00;100543.39;104423;1256;59870;-53
2023/12/11 04:07:17;;;;;;;0.70;0.50;;;;;;;0.10;100.00;100543.55;104452;1263;59677;-53
2023/12/11 04:09:44;;;;;;;0.70;0.50;;;;;;;0.08;100.00;100537.73;104693;1258;73592;-54
2023/12/11 04:12:12;;;;;;;0.70;0.60;;;;;;;0.07;100.00;100538.78;104676;1260;65691;-53
2023/12/11 04:14:39;;;;;;;0.60;0.40;;;;;;;0.05;100.00;100533.83;104440;1259;71489;-53
2023/12/11 04:17:07;;;;;;;0.70;0.60;;;;;;;0.02;100.00;100526.21;104472;1256;61060;-52
2023/12/11 04:19:34;;;;;;;0.60;0.50;;;;;;;0.02;100.00;100532.03;104716;1260;60564;-53
2023/12/11 04:22:02;;;;;;;1.30;0.50;;;;;;;0.01;100.00;100531.85;104680;1261;73523;-52
2023/12/11 04:24:30;;;;;;;0.60;0.40;;;;;;;0.01;100.00;100526.55;104572;1258;67461;-53
2023/12/11 04:26:57;;;;;;;0.70;0.50;;;;;;;0.02;100.00;100524.62;104718;1265;73623;-53
2023/12/11 04:29:25;;;;;;;0.60;0.50;;;;;;;0.02;100.00;100520.55;104706;1254;59823;-53
2023/12/11 04:31:52;;;;;;;0.70;0.50;;;;;;;0.03;100.00;100523.57;104868;1257;59817;-52
2023/12/11 04:34:20;;;;;;;1.00;0.70;;;;;;;0.04;100.00;100529.05;104591;1260;73712;-57
2023/12/11 04:36:48;;;;;;;0.80;0.60;;;;;;;0.05;100.00;100526.94;105135;1260;69447;-52
2023/12/11 04:39:15;;;;;;;0.70;0.60;;;;;;;0.05;100.00;100528.53;104631;1260;71506;-53
2023/12/11 04:41:43;;;;;;;0.90;0.70;;;;;;;0.04;100.00;100529.93;104537;1262;59722;-52
2023/12/11 04:44:10;;;;;;;0.80;0.60;;;;;;;0.03;100.00;100527.80;104520;1257;62195;-51
2023/12/11 04:46:37;;;;;;;1.00;0.80;;;;;;;0.01;100.00;100527.61;104520;1256;75304;-52
2023/12/11 04:49:05;;;;;;;1.00;0.80;;;;;;;0.00;100.00;100519.33;104503;1261;65779;-52
2023/12/11 04:51:33;;;;;;;4.90;1.80;;;;;;;-0.00;100.00;100515.09;104588;1263;70477;-52
2023/12/11 04:54:00;;;;;;;1.00;0.70;;;;;;;-0.00;100.00;100511.21;104520;1257;61301;-53
2023/12/11 04:56:28;;;;;;;1.40;0.90;;;;;;;-0.00;100.00;100509.63;104554;1257;61803;-53
2023/12/11 04:58:55;;;;;;;2.60;0.90;;;;;;;0.01;100.00;100505.73;104605;1257;73033;-53
2023/12/11 05:01:25;;;;;;;0.90;0.70;;;;;;;0.02;100.00;100502.04;104773;1257;67092;-53
2023/12/11 05:03:53;;;;;;;0.90;0.70;;;;;;;0.05;100.00;100509.30;104883;1262;72719;-53
2023/12/11 05:06:21;;;;;;;1.30;0.70;;;;;;;0.06;100.00;100510.73;104562;1265;59741;-53
2023/12/11 05:08:49;;;;;;;2.40;0.80;;;;;;;0.08;100.00;100504.38;104480;1258;59926;-53
2023/12/11 05:11:16;;;;;;;1.10;0.80;;;;;;;0.10;100.00;100499.42;104669;1259;73133;-54
2023/12/11 05:13:44;;;;;;;1.60;0.80;;;;;;;0.10;100.00;100495.20;104739;1257;65317;-52
2023/12/11 05:16:11;;;;;;;3.10;1.20;;;;;;;0.10;100.00;100486.36;104616;1258;74785;-54
2023/12/11 05:18:39;;;;;;;1.00;0.90;;;;;;;0.09;100.00;100490.25;104390;1260;59742;-53
2023/12/11 05:21:08;;;;;;;1.90;1.00;;;;;;;0.09;100.00;100485.48;104830;1261;59930;-52
2023/12/11 05:23:36;;;;;;;1.10;0.80;;;;;;;0.07;100.00;100477.38;104464;1257;73416;-52
2023/12/11 05:26:04;;;;;;;1.10;1.00;;;;;;;0.06;100.00;100477.02;104580;1266;65995;-53
2023/12/11 05:28:32;;;;;;;1.90;1.20;;;;;;;0.04;100.00;100478.06;104355;1258;73134;-53
2023/12/11 05:30:59;;;;;;;1.40;0.80;;;;;;;0.03;100.00;100473.10;104481;1257;60514;-55
2023/12/11 05:33:27;;;;;;;1.30;0.70;;;;;;;0.03;100.00;100468.52;104579;1261;62123;-56
2023/12/11 05:35:54;;;;;;;1.00;0.90;;;;;;;0.04;100.00;100472.23;104474;1264;72693;-52
2023/12/11 05:38:22;;;;;;;1.10;0.80;;;;;;;0.07;100.00;100469.08;104424;1258;66675;-52
2023/12/11 05:40:49;;;;;;;1.10;0.90;;;;;;;0.08;100.00;100466.27;104558;1259;72831;-52
2023/12/11 05:43:17;;;;;;;1.50;0.80;;;;;;;0.11;100.00;100462.73;104495;1256;60503;-53
2023/12/11 05:45:45;;;;;;;1.90;0.80;;;;;;;0.12;100.00;100458.86;106229;1260;60428;-53
2023/12/11 05:48:12;;;;;;;2.20;0.90;;;;;;;0.15;100.00;100463.30;105872;1258;74424;-51
2023/12/11 05:50:40;;;;;;;5.90;3.50;;;;;;;0.18;100.00;100466.30;104601;1261;67077;-53
2023/12/11 05:53:08;;;;;;;1.10;0.90;;;;;;;0.19;100.00;100464.54;107895;1257;72911;-52
2023/12/11 05:55:36;;;;;;;2.20;0.80;;;;;;;0.19;100.00;100467.89;105408;1261;60482;-52
2023/12/11 05:58:04;;;;;;;1.20;0.80;;;;;;;0.19;100.00;100474.60;104837;1262;60501;-51
2023/12/11 06:00:31;;;;;;;1.20;0.80;;;;;;;0.17;100.00;100469.83;104724;1260;72624;-51
2023/12/11 06:02:59;;;;;;;1.40;0.70;;;;;;;0.16;100.00;100477.25;105044;1261;67229;-51
2023/12/11 06:05:26;;;;;;;1.50;0.80;;;;;;;0.16;100.00;100476.55;104665;1259;71481;-52
2023/12/11 06:07:54;;;;;;;0.90;0.70;;;;;;;0.16;100.00;100477.60;104559;1261;60917;-52
2023/12/11 06:10:22;;;;;;;1.20;0.80;;;;;;;0.16;100.00;100485.20;104718;1258;60597;-52
2023/12/11 06:12:50;;;;;;;1.90;0.80;;;;;;;0.17;100.00;100482.89;104851;1257;74274;-53
2023/12/11 06:15:17;;;;;;;1.60;0.90;;;;;;;0.19;100.00;100487.30;104789;1258;67150;-53
2023/12/11 06:17:45;;;;;;;2.50;0.80;;;;;;;0.20;100.00;100485.90;104832;1261;72964;-53
2023/12/11 06:20:12;;;;;;;1.20;0.70;;;;;;;0.22;100.00;100483.98;108716;1257;59344;-52
2023/12/11 06:22:40;;;;;;;2.20;1.00;;;;;;;0.24;100.00;100484.00;108729;1256;60680;-53
2023/12/11 06:25:07;;;;;;;0.90;0.70;;;;;;;0.27;100.00;100477.64;108687;1255;72678;-52
2023/12/11 06:27:35;;;;;;;3.00;0.90;;;;;;;0.28;100.00;100472.35;108190;1258;65781;-53
2023/12/11 06:30:05;;;;;;;1.00;0.80;;;;;;;0.28;100.00;100474.46;108761;1256;73054;-53
2023/12/11 06:32:34;;;;;;;2.50;0.80;;;;;;;0.28;100.00;100479.06;106362;1260;60550;-53
2023/12/11 06:35:02;;;;;;;1.40;0.80;;;;;;;0.29;100.00;100478.01;104670;1259;60495;-53
2023/12/11 06:37:30;;;;;;;1.80;0.70;;;;;;;0.30;100.00;100481.36;108178;1257;72639;-53
2023/12/11 06:39:58;;;;;;;1.80;0.60;;;;;;;0.32;100.00;100472.38;104662;1261;65532;-54
2023/12/11 06:42:26;;;;;;;1.90;0.60;;;;;;;0.36;100.00;100470.98;108706;1258;74837;-54
2023/12/11 06:44:53;;;;;;;0.60;0.50;;;;;;;0.38;100.00;100470.98;108668;1257;60971;-53
2023/12/11 06:47:21;;;;;;;1.20;1.10;;;;;;;0.39;100.00;100473.47;108741;1257;60105;-53
2023/12/11 06:49:48;;;;;;;0.90;0.50;;;;;;;0.41;100.00;100472.07;108739;1257;72569;-53
2023/12/11 06:52:16;;;;;;;1.40;0.50;;;;;;;0.43;100.00;100482.48;106280;1256;65702;-53
2023/12/11 06:54:44;;;;;;;1.00;0.70;;;;;;;0.44;100.00;100486.89;105037;1261;71387;-52
2023/12/11 06:57:14;;;;;;;0.80;0.70;;;;;;;0.44;100.00;100491.48;106054;1257;60557;-53
2023/12/11 06:59:42;;;;;;;1.00;0.80;;;;;;;0.44;100.00;100493.95;104708;1256;60980;-54
2023/12/11 07:02:09;;;;;;;1.10;0.60;;;;;;;0.45;100.00;100497.32;104669;1257;72628;-51
2023/12/11 07:04:40;;;;;;;2.00;0.80;;;;;;;0.46;100.00;100499.80;105485;1257;67871;-52
2023/12/11 07:07:09;;;;;;;3.10;0.70;;;;;;;0.46;100.00;100505.45;104877;1256;71491;-52
2023/12/11 07:09:37;;;;;;;1.10;0.70;;;;;;;0.45;100.00;100507.02;104544;1255;60532;-51
2023/12/11 07:12:05;;;;;;;1.70;0.70;;;;;;;0.45;100.00;100502.09;107173;1257;59284;-52
2023/12/11 07:14:32;;;;;;;0.80;0.60;;;;;;;0.45;100.00;100499.44;105476;1260;74036;-51
2023/12/11 07:16:59;;;;;;;1.40;0.70;;;;;;;0.45;100.00;100501.38;104571;1257;65550;-51
2023/12/11 07:19:27;;;;;;;2.00;0.70;;;;;;;0.46;100.00;100502.27;104560;1261;73161;-52
2023/12/11 07:21:55;;;;;;;2.00;1.00;;;;;;;0.46;100.00;100502.09;104585;1262;60977;-53
2023/12/11 07:24:23;;;;;;;1.20;0.70;;;;;;;0.46;100.00;100500.86;105188;1260;61150;-51
2023/12/11 07:26:51;;;;;;;1.10;0.70;;;;;;;0.45;100.00;100501.02;104616;1258;73941;-51
2023/12/11 07:29:20;;;;;;;1.20;0.60;;;;;;;0.45;100.00;100500.67;104456;1260;68019;-52
2023/12/11 07:31:47;;;;;;;1.10;0.60;;;;;;;0.43;100.00;100504.20;104608;1258;72716;-51
2023/12/11 07:34:15;;;;;;;1.70;0.70;;;;;;;0.42;100.00;100507.03;104453;1260;60351;-52
2023/12/11 07:36:44;;;;;;;4.20;0.70;;;;;;;0.40;100.00;100500.84;104613;1256;60594;-52
2023/12/11 07:39:11;;;;;;;1.40;0.80;;;;;;;0.39;100.00;100502.42;104682;1261;76034;-52
2023/12/11 07:41:39;;;;;;;0.80;0.50;;;;;;;0.39;100.00;100504.19;104607;1259;67896;-53
2023/12/11 07:44:07;;;;;;;0.70;0.60;;;;;;;0.38;100.00;100499.41;104600;1257;72745;-51
2023/12/11 07:46:35;;;;;;;1.00;0.60;;;;;;;0.38;100.00;100501.89;104706;1257;60482;-52
2023/12/11 07:49:03;;;;;;;1.00;0.60;;;;;;;0.35;100.00;100500.80;104961;1261;60682;-52
2023/12/11 07:51:31;;;;;;;1.10;0.40;;;;;;;0.34;100.00;100505.04;104822;1254;74320;-51
2023/12/11 07:53:59;;;;;;;1.10;0.50;;;;;;;0.33;100.00;100503.98;104851;1256;65838;-52
2023/12/11 07:56:27;;;;;;;0.70;0.60;;;;;;;0.31;100.00;100500.98;104712;1259;71202;-52
2023/12/11 07:58:54;;;;;;;1.00;0.70;;;;;;;0.30;100.00;100500.44;104591;1257;61335;-50
2023/12/11 08:01:22;;;;;;;1.10;0.70;;;;;;;0.28;100.00;100497.77;104603;1260;60403;-51
2023/12/11 08:03:50;;;;;;;2.30;0.80;;;;;;;0.26;100.00;100494.05;105115;1260;73904;-51
2023/12/11 08:06:18;;;;;;;9.60;4.20;;;;;;;0.26;100.00;100487.52;105136;1257;66097;-50
2023/12/11 08:08:45;;;;;;;4.70;2.50;;;;;;;0.25;100.00;100481.88;104681;1261;71486;-53
2023/12/11 08:11:18;;;;;;;3.30;3.00;;;;;;;0.26;100.00;100477.27;104480;1259;60567;-51
2023/12/11 08:13:46;;;;;;;15.10;12.80;;;;;;;0.26;100.00;100480.64;104668;1256;60503;-51
2023/12/11 08:16:14;;;;;;;4.40;2.30;;;;;;;0.29;100.00;100473.59;104623;1258;74995;-52
2023/12/11 08:18:43;;;;;;;10.20;4.50;;;;;;;0.29;100.00;100477.84;105637;1260;67068;-50
2023/12/11 08:21:11;;;;;;;1.60;1.10;;;;;;;0.31;100.00;100475.20;105299;1260;70860;-50
2023/12/11 08:23:39;;;;;;;3.20;2.20;;;;;;;0.32;100.00;100473.80;104891;1260;60438;-51
2023/12/11 08:26:09;;;;;;;11.60;5.40;;;;;;;0.30;100.00;100471.31;105292;1260;60464;-53
2023/12/11 08:28:37;;;;;;;1.20;0.90;;;;;;;0.29;100.00;100473.95;105240;1255;74749;-52
2023/12/11 08:31:04;;;;;;;4.80;1.60;;;;;;;0.28;100.00;100470.23;104934;1260;68809;-54
2023/12/11 08:33:32;;;;;;;2.10;0.90;;;;;;;0.28;100.00;100471.83;105443;1259;71564;-49
2023/12/11 08:36:00;;;;;;;2.60;0.90;;;;;;;0.29;100.00;100466.53;104652;1257;60717;-53
2023/12/11 08:38:27;;;;;;;2.90;1.00;;;;;;;0.29;100.00;100469.18;104484;1256;60464;-52
2023/12/11 08:40:55;;;;;;;2.00;1.10;;;;;;;0.28;100.00;100468.64;104608;1257;73990;-51
2023/12/11 08:43:23;;;;;;;3.80;1.20;;;;;;;0.28;100.00;100465.64;105015;1257;65815;-52
2023/12/11 08:45:51;;;;;;;3.50;2.20;;;;;;;0.28;100.00;100464.58;104730;1260;72787;-55
2023/12/11 08:48:18;;;;;;;2.00;0.90;;;;;;;0.29;100.00;100458.41;104692;1261;60399;-53
2023/12/11 08:50:48;;;;;;;8.60;3.50;;;;;;;0.31;100.00;100456.67;105074;1260;60551;-54
2023/12/11 08:53:16;;;;;;;3.80;1.90;;;;;;;0.34;100.00;100454.02;106280;1262;76638;-53
2023/12/11 08:55:43;;;;;;;27.30;12.70;;;;;;;0.38;100.00;100455.63;104598;1258;69696;-54
2023/12/11 08:58:11;;;;;;;6.00;3.30;;;;;;;0.41;100.00;100458.30;104790;1256;73145;-52
2023/12/11 09:00:39;;;;;;;10.50;5.20;;;;;;;0.43;100.00;100456.88;104753;1260;60555;-52
2023/12/11 09:03:07;;;;;;;27.20;14.50;;;;;;;0.45;100.00;100447.52;108864;1255;60489;-53
2023/12/11 09:05:35;;;;;;;3.90;2.10;;;;;;;0.45;100.00;100441.70;106533;1257;73783;-54
2023/12/11 09:08:02;;;;;;;2.50;1.40;;;;;;;0.43;100.00;100441.51;104714;1257;66901;-53
2023/12/11 09:10:30;;;;;;;1.40;1.10;;;;;;;0.43;100.00;100440.80;104561;1256;73241;-52
2023/12/11 09:12:59;;;;;;;1.70;0.80;;;;;;;0.43;100.00;100438.68;104501;1257;60681;-52
2023/12/11 09:15:27;;;;;;;1.40;1.00;;;;;;;0.44;100.00;100439.22;108794;1257;59501;-53
2023/12/11 09:17:54;;;;;;;1.90;1.10;;;;;;;0.46;100.00;100437.64;108856;1256;74292;-54
2023/12/11 09:20:22;;;;;;;1.40;1.00;;;;;;;0.47;100.00;100441.36;108816;1256;66092;-52
2023/12/11 09:22:49;;;;;;;1.50;1.00;;;;;;;0.49;100.00;100440.84;104846;1256;72711;-51
2023/12/11 09:25:17;;;;;;;1.20;1.00;;;;;;;0.50;100.00;100441.92;104638;1257;60562;-52
2023/12/11 09:27:44;;;;;;;1.60;1.10;;;;;;;0.50;100.00;100443.48;104693;1256;60483;-53
2023/12/11 09:30:15;;;;;;;2.20;1.00;;;;;;;0.48;100.00;100442.95;108741;1256;73964;-53
2023/12/11 09:32:42;;;;;;;1.80;0.80;;;;;;;0.48;100.00;100441.89;108792;1255;66772;-54
2023/12/11 09:35:10;;;;;;;1.50;0.90;;;;;;;0.46;100.00;100430.94;108768;1257;72749;-53
2023/12/11 09:37:38;;;;;;;1.10;0.80;;;;;;;0.44;100.00;100426.68;108704;1256;61374;-52
2023/12/11 09:40:06;;;;;;;1.30;0.70;;;;;;;0.42;100.00;100427.39;108703;1255;60278;-54
2023/12/11 09:42:34;;;;;;;1.10;0.90;;;;;;;0.38;100.00;100428.44;108328;1257;74256;-51
2023/12/11 09:45:03;;;;;;;1.60;0.90;;;;;;;0.38;100.00;100426.84;104562;1256;66114;-52
2023/12/11 09:47:34;;;;;;;4.50;0.90;;;;;;;0.37;100.00;100428.79;104673;1256;73181;-49
2023/12/11 09:50:02;;;;;;;2.90;1.20;;;;;;;0.37;100.00;100434.96;104620;1257;62329;-54
2023/12/11 09:52:30;;;;;;;2.90;1.50;;;;;;;0.38;100.00;100431.45;108822;1256;60064;-55
2023/12/11 09:54:59;;;;;;;1.90;1.10;;;;;;;0.39;100.00;100430.57;108759;1256;74561;-55
2023/12/11 09:57:27;;;;;;;2.10;1.00;;;;;;;0.39;100.00;100429.51;108690;1255;67634;-51
2023/12/11 09:59:55;;;;;;;1.60;0.80;;;;;;;0.38;100.00;100432.33;104854;1261;72621;-51
2023/12/11 10:02:25;;;;;;;1.50;0.70;;;;;;;0.36;100.00;100433.89;105800;1258;60974;-52
2023/12/11 10:05:03;;;;;;;2.20;0.80;;;;;;;0.32;100.00;100426.66;108724;1256;58842;-54
2023/12/11 10:07:32;;;;;;;2.30;0.90;;;;;;;0.28;100.00;100427.52;108746;1255;73796;-52
2023/12/11 10:10:27;;;;;;;1.90;0.90;;;;;;;0.25;100.00;100426.45;106660;1256;65870;-50
2023/12/11 10:12:54;;;;;;;2.00;1.20;;;;;;;0.25;100.00;100422.23;104623;1259;75813;-50
2023/12/11 10:15:27;;;;;;;2.40;1.30;;;;;;;0.27;100.00;100409.67;107820;1256;61422;-52
2023/12/11 10:18:14;;;;;;;4.10;1.10;;;;;;;0.29;100.00;100408.80;104650;1256;60458;-50
2023/12/11 10:20:42;;;;;;;3.40;1.70;;;;;;;0.29;100.00;100410.39;104759;1258;75565;-53
2023/12/11 10:23:15;;;;;;;3.50;1.50;;;;;;;0.27;100.00;100399.80;104807;1260;67237;-53
2023/12/11 10:25:48;;;;;;;5.90;3.10;;;;;;;0.26;100.00;100401.55;105579;1257;71368;-52
2023/12/11 10:28:17;;;;;;;4.40;2.10;;;;;;;0.25;100.00;100401.55;104652;1257;61604;-54
2023/12/11 10:31:02;;;;;;;7.10;2.30;;;;;;;0.24;100.00;100399.98;104531;1256;60860;-54
2023/12/11 10:33:33;;;;;;;4.50;2.50;;;;;;;0.24;100.00;100400.67;104624;1260;74289;-51
2023/12/11 10:36:15;;;;;;;5.10;2.60;;;;;;;0.23;100.00;100392.02;104950;1256;65567;-52
2023/12/11 10:38:43;;;;;;;4.20;2.00;;;;;;;0.21;100.00;100397.84;104702;1255;73711;-54
2023/12/11 10:41:24;;;;;;;3.70;1.90;;;;;;;0.21;100.00;100391.84;104474;1258;60651;-51
2023/12/11 10:43:51;;;;;;;11.10;3.30;;;;;;;0.22;100.00;100387.42;104496;1257;60440;-51
2023/12/11 10:46:39;;;;;;;10.70;3.90;;;;;;;0.22;100.00;100386.36;104606;1256;72679;-54
2023/12/11 10:49:07;;;;;;;7.20;3.00;;;;;;;0.22;100.00;100375.42;105061;1261;65125;-56
2023/12/11 10:51:35;;;;;;;18.90;6.70;;;;;;;0.22;100.00;100372.60;104621;1256;72650;-52
2023/12/11 10:54:02;;;;;;;8.70;3.70;;;;;;;0.24;100.00;100368.20;104367;1261;61370;-53
2023/12/11 10:56:31;;;;;;;9.60;4.20;;;;;;;0.25;100.00;100365.38;104795;1256;60897;-53
2023/12/11 10:58:58;;;;;;;4.60;2.60;;;;;;;0.28;100.00;100360.43;104883;1256;73931;-54
2023/12/11 11:01:26;;;;;;;7.00;3.10;;;;;;;0.30;100.00;100360.98;104630;1255;65319;-53
2023/12/11 11:03:53;;;;;;;7.60;2.80;;;;;;;0.32;100.00;100354.81;106984;1256;72702;-53
2023/12/11 11:06:21;;;;;;;6.70;3.80;;;;;;;0.32;100.00;100356.93;104576;1255;60563;-55
2023/12/11 11:08:56;;;;;;;3.90;2.40;;;;;;;0.31;100.00;100355.34;104656;1256;62072;-55
2023/12/11 11:11:31;;;;;;;5.00;2.20;;;;;;;0.30;100.00;100359.56;104568;1260;73861;-54
2023/12/11 11:14:14;;;;;;;7.80;3.20;;;;;;;0.27;100.00;100359.37;105273;1260;66968;-51
2023/12/11 11:16:51;;;;;;;10.60;4.70;;;;;;;0.26;100.00;100356.91;105178;1261;72794;-53
2023/12/11 11:19:18;;;;;;;8.40;3.60;;;;;;;0.23;100.00;100354.79;104460;1257;61766;-52
2023/12/11 11:22:06;;;;;;;7.20;2.00;;;;;;;0.21;100.00;100351.95;104793;1255;60557;-52
2023/12/11 11:24:37;;;;;;;4.90;1.80;;;;;;;0.20;100.00;100351.05;105663;1259;74254;-54